createdAt,value
2023-01-08T00:01:32.388Z,10.10
2023-01-08T00:04:00.911Z,11.37
2023-01-08T00:06:29.357Z,12.63
2023-01-08T00:08:57.928Z,14.63
2023-01-08T00:11:26.370Z,11.37
2023-01-08T00:13:54.842Z,16.27
2023-01-08T00:16:24.701Z,12.53
2023-01-08T00:18:53.090Z,9.53
2023-01-08T00:21:21.801Z,11.73
2023-01-08T00:23:50.340Z,8.17
2023-01-08T00:26:18.787Z,12.40
2023-01-08T00:28:47.298Z,8.10
2023-01-08T00:31:15.859Z,6.50
2023-01-08T00:33:45.750Z,9.77
2023-01-08T00:36:15.529Z,11.00
2023-01-08T00:38:44.425Z,9.30
2023-01-08T00:41:13.878Z,7.03
2023-01-08T00:43:42.265Z,6.77
2023-01-08T00:46:10.957Z,6.47
2023-01-08T00:48:39.664Z,9.33
2023-01-08T00:51:10.102Z,7.80
2023-01-08T00:53:39.114Z,6.43
2023-01-08T00:56:08.407Z,6.40
2023-01-08T00:58:37.187Z,7.23
2023-01-08T01:01:11.333Z,7.53
2023-01-08T01:03:39.885Z,7.07
2023-01-08T01:06:10.078Z,6.73
2023-01-08T01:08:38.521Z,8.40
2023-01-08T01:11:10.167Z,7.13
2023-01-08T01:13:38.624Z,6.03
2023-01-08T01:16:07.450Z,7.20
2023-01-08T01:18:35.941Z,8.70
2023-01-08T01:21:04.365Z,7.80
2023-01-08T01:23:34.198Z,8.17
2023-01-08T01:26:02.716Z,6.00
2023-01-08T01:28:31.119Z,6.40
2023-01-08T01:30:59.711Z,5.10
2023-01-08T01:33:28.188Z,7.13
2023-01-08T01:36:03.652Z,7.17
2023-01-08T01:38:32.380Z,5.23
2023-01-08T01:41:02.204Z,6.80
2023-01-08T01:43:37.509Z,6.97
2023-01-08T01:46:06.819Z,7.40
2023-01-08T01:48:35.433Z,6.33
2023-01-08T01:51:04.058Z,5.03
2023-01-08T01:53:34.684Z,6.23
2023-01-08T01:56:05.013Z,9.00
2023-01-08T01:58:34.200Z,8.73
2023-01-08T02:01:04.730Z,7.53
2023-01-08T02:03:35.883Z,6.87
2023-01-08T02:06:06.811Z,6.80
2023-01-08T02:08:40.729Z,10.03
2023-01-08T02:11:12.387Z,6.57
2023-01-08T02:13:42.194Z,9.97
2023-01-08T02:16:14.602Z,8.30
2023-01-08T02:18:47.908Z,11.70
2023-01-08T02:21:19.424Z,11.00
2023-01-08T02:23:49.470Z,7.23
2023-01-08T02:26:21.179Z,10.27
2023-01-08T02:28:51.733Z,11.03
2023-01-08T02:31:21.086Z,9.67
2023-01-08T02:33:49.623Z,12.57
2023-01-08T02:36:25.895Z,11.57
2023-01-08T02:39:00.335Z,9.90
2023-01-08T02:41:34.409Z,8.93
2023-01-08T02:44:02.953Z,9.57
2023-01-08T02:46:34.443Z,13.17
2023-01-08T02:49:06.220Z,13.93
2023-01-08T02:51:37.045Z,8.27
2023-01-08T02:54:07.141Z,11.17
2023-01-08T02:56:38.770Z,14.47
2023-01-08T02:59:09.260Z,9.93
2023-01-08T03:01:37.899Z,12.50
2023-01-08T03:04:08.493Z,11.87
2023-01-08T03:06:37.088Z,11.47
2023-01-08T03:09:06.137Z,14.97
2023-01-08T03:11:38.239Z,17.10
2023-01-08T03:14:11.931Z,12.53
2023-01-08T03:16:41.446Z,14.53
2023-01-08T03:19:11.902Z,14.23
2023-01-08T03:21:41.265Z,17.10
2023-01-08T03:24:10.308Z,14.63
2023-01-08T03:26:39.776Z,16.37
2023-01-08T03:29:13.190Z,16.23
2023-01-08T03:31:42.131Z,16.80
2023-01-08T03:34:10.905Z,13.87
2023-01-08T03:36:42.717Z,14.20
2023-01-08T03:39:14.287Z,13.43
2023-01-08T03:41:43.421Z,13.20
2023-01-08T03:44:13.237Z,11.03
2023-01-08T03:46:44.359Z,12.73
2023-01-08T03:49:13.664Z,11.77
2023-01-08T03:51:42.674Z,13.60
2023-01-08T03:54:13.262Z,14.87
2023-01-08T03:56:41.769Z,12.70
2023-01-08T03:59:10.267Z,13.17
2023-01-08T04:01:40.453Z,11.63
2023-01-08T04:04:09.337Z,14.93
2023-01-08T04:06:37.851Z,12.43
2023-01-08T04:09:06.445Z,11.87
2023-01-08T04:11:34.955Z,11.13
2023-01-08T04:14:03.431Z,12.03
2023-01-08T04:16:32.164Z,10.43
2023-01-08T04:19:02.047Z,11.33
2023-01-08T04:21:30.486Z,13.13
2023-01-08T04:23:58.897Z,14.70
2023-01-08T04:26:27.350Z,11.43
2023-01-08T04:28:55.760Z,12.10
2023-01-08T04:31:24.240Z,12.37
2023-01-08T04:33:52.800Z,16.87
2023-01-08T04:36:22.558Z,20.87
2023-01-08T04:38:51.047Z,18.43
2023-01-08T04:41:19.480Z,23.73
2023-01-08T04:43:47.905Z,20.20
2023-01-08T04:46:16.395Z,19.73
2023-01-08T04:48:44.992Z,22.17
2023-01-08T04:51:13.518Z,15.10
2023-01-08T04:53:43.360Z,22.30
2023-01-08T04:56:12.356Z,19.63
2023-01-08T04:58:41.136Z,17.17
2023-01-08T05:01:13.398Z,20.50
2023-01-08T05:03:41.909Z,23.23
2023-01-08T05:06:10.368Z,15.77
2023-01-08T05:08:38.729Z,21.97
2023-01-08T05:11:08.553Z,20.33
2023-01-08T05:13:37.055Z,20.33
2023-01-08T05:16:05.798Z,18.10
2023-01-08T05:18:34.369Z,18.13
2023-01-08T05:21:03.275Z,23.07
2023-01-08T05:23:31.911Z,26.27
2023-01-08T05:26:00.658Z,24.20
2023-01-08T05:28:30.554Z,16.37
2023-01-08T05:30:59.243Z,18.17
2023-01-08T05:33:27.801Z,27.33
2023-01-08T05:35:56.526Z,26.63
2023-01-08T05:38:25.038Z,25.97
2023-01-08T05:40:54.081Z,20.83
2023-01-08T05:43:22.547Z,25.67
2023-01-08T05:45:52.522Z,26.23
2023-01-08T05:48:21.044Z,23.13
2023-01-08T05:50:50.625Z,20.17
2023-01-08T05:53:19.112Z,22.00
2023-01-08T05:55:47.565Z,23.17
2023-01-08T05:58:19.146Z,20.67
2023-01-08T06:00:47.733Z,23.70
2023-01-08T06:03:17.579Z,21.40
2023-01-08T06:05:46.093Z,24.40
2023-01-08T06:08:14.521Z,26.07
2023-01-08T06:10:42.996Z,21.23
2023-01-08T06:13:11.894Z,23.20
2023-01-08T06:15:41.050Z,22.73
2023-01-08T06:18:09.565Z,24.37
2023-01-08T06:20:39.371Z,27.13
2023-01-08T06:23:08.769Z,22.93
2023-01-08T06:25:37.455Z,23.23
2023-01-08T06:28:06.220Z,26.70
2023-01-08T06:30:34.759Z,25.43
2023-01-08T06:33:03.575Z,61.00
2023-01-08T06:35:32.055Z,31.33
2023-01-08T06:38:01.967Z,32.27
2023-01-08T06:40:30.486Z,27.33
2023-01-08T06:43:04.009Z,28.20
2023-01-08T06:45:32.401Z,27.93
2023-01-08T06:48:02.964Z,29.83
2023-01-08T06:50:31.585Z,30.40
2023-01-08T06:53:00.110Z,32.43
2023-01-08T06:55:29.987Z,38.23
2023-01-08T06:57:58.599Z,29.63
2023-01-08T07:00:27.737Z,26.27
2023-01-08T07:02:56.470Z,28.93
2023-01-08T07:05:25.647Z,27.97
2023-01-08T07:07:54.131Z,29.53
2023-01-08T07:10:22.657Z,28.13
2023-01-08T07:12:52.578Z,37.67
2023-01-08T07:15:21.045Z,38.97
2023-01-08T07:17:49.447Z,28.57
2023-01-08T07:20:18.042Z,31.87
2023-01-08T07:22:46.488Z,33.37
2023-01-08T07:25:14.931Z,35.20
2023-01-08T07:27:43.326Z,44.63
2023-01-08T07:30:28.129Z,40.67
2023-01-08T07:33:00.443Z,48.43
2023-01-08T07:35:29.016Z,47.93
2023-01-08T07:37:57.864Z,42.27
2023-01-08T07:40:26.319Z,44.63
2023-01-08T07:43:01.023Z,45.80
2023-01-08T07:45:31.191Z,43.30
2023-01-08T07:47:59.899Z,43.20
2023-01-08T07:50:28.802Z,39.70
2023-01-08T07:52:59.495Z,38.90
2023-01-08T07:55:28.013Z,42.53
2023-01-08T07:57:56.811Z,42.33
2023-01-08T08:00:25.268Z,200.27
2023-01-08T08:02:55.211Z,42.03
2023-01-08T08:05:23.815Z,38.90
2023-01-08T08:07:52.301Z,41.33
2023-01-08T08:10:20.812Z,35.10
2023-01-08T08:12:49.267Z,55.63
2023-01-08T08:15:17.838Z,69.50
2023-01-08T08:17:47.035Z,79.73
2023-01-08T08:20:17.254Z,55.47
2023-01-08T08:22:45.793Z,65.87
2023-01-08T08:25:15.319Z,41.17
2023-01-08T08:27:44.251Z,44.73
2023-01-08T08:30:13.397Z,42.47
2023-01-08T08:32:41.913Z,41.07
2023-01-08T08:35:10.855Z,71.00
2023-01-08T08:37:40.699Z,78.80
2023-01-08T08:40:09.997Z,78.03
2023-01-08T08:42:38.496Z,54.60
2023-01-08T08:45:07.864Z,51.43
2023-01-08T08:47:36.262Z,57.70
2023-01-08T08:50:04.942Z,50.73
2023-01-08T08:52:33.523Z,56.50
2023-01-08T08:55:03.366Z,62.90
2023-01-08T08:57:31.877Z,57.63
2023-01-08T09:00:01.435Z,61.63
2023-01-08T09:02:30.156Z,64.20
2023-01-08T09:04:58.791Z,55.30
2023-01-08T09:07:27.296Z,53.80
2023-01-08T09:09:55.861Z,108.73
2023-01-08T09:12:25.714Z,82.90
2023-01-08T09:14:54.964Z,72.23
2023-01-08T09:17:23.468Z,54.83
2023-01-08T09:19:51.871Z,68.53
2023-01-08T09:22:20.521Z,42.37
2023-01-08T09:24:49.085Z,52.53
2023-01-08T09:27:17.685Z,42.37
2023-01-08T09:29:47.554Z,50.00
2023-01-08T09:32:15.977Z,56.80
2023-01-08T09:34:44.439Z,51.40
2023-01-08T09:37:12.860Z,52.70
2023-01-08T09:39:42.570Z,49.87
2023-01-08T09:42:13.563Z,47.97
2023-01-08T09:44:43.455Z,44.63
2023-01-08T09:47:19.350Z,52.63
2023-01-08T09:49:48.434Z,51.67
2023-01-08T09:52:17.555Z,42.17
2023-01-08T09:54:46.022Z,47.60
2023-01-08T09:57:15.365Z,48.33
2023-01-08T09:59:43.967Z,46.93
2023-01-08T10:02:16.265Z,45.80
2023-01-08T10:04:45.720Z,51.00
2023-01-08T10:07:21.181Z,44.27
2023-01-08T10:09:50.546Z,49.70
2023-01-08T10:12:22.483Z,48.33
2023-01-08T10:14:52.103Z,43.20
2023-01-08T10:17:26.790Z,47.60
2023-01-08T10:19:55.163Z,46.50
2023-01-08T10:22:24.509Z,38.30
2023-01-08T10:24:54.276Z,43.17
2023-01-08T10:27:23.878Z,41.07
2023-01-08T10:29:52.624Z,34.13
2023-01-08T10:32:25.134Z,38.87
2023-01-08T10:34:57.525Z,58.10
2023-01-08T10:37:27.900Z,37.37
2023-01-08T10:39:57.223Z,65.93
2023-01-08T10:42:26.203Z,32.47
2023-01-08T10:45:01.002Z,32.73
2023-01-08T10:47:30.566Z,28.77
2023-01-08T10:50:01.112Z,24.10
2023-01-08T10:52:32.945Z,29.90
2023-01-08T10:55:13.053Z,30.80
2023-01-08T10:57:43.485Z,27.27
2023-01-08T11:00:24.480Z,28.43
2023-01-08T11:02:53.187Z,34.00
2023-01-08T11:05:30.702Z,32.00
2023-01-08T11:08:00.367Z,26.77
2023-01-08T11:10:30.034Z,27.57
2023-01-08T11:12:59.777Z,29.67
2023-01-08T11:15:30.791Z,26.60
2023-01-08T11:18:06.179Z,29.30
2023-01-08T11:20:36.130Z,34.60
2023-01-08T11:23:08.487Z,34.97
2023-01-08T11:25:37.590Z,38.37
2023-01-08T11:28:06.749Z,33.30
2023-01-08T11:30:38.220Z,30.50
2023-01-08T11:33:08.189Z,28.57
2023-01-08T11:35:38.425Z,26.50
2023-01-08T11:38:08.297Z,27.73
2023-01-08T11:40:41.310Z,33.20
2023-01-08T11:43:15.807Z,27.83
2023-01-08T11:45:49.768Z,29.60
2023-01-08T11:48:33.704Z,27.63
2023-01-08T11:51:09.163Z,24.97
2023-01-08T11:53:40.276Z,24.80
2023-01-08T11:56:16.903Z,25.97
2023-01-08T11:58:52.982Z,28.60
2023-01-08T12:01:33.893Z,25.20
2023-01-08T12:04:15.048Z,22.30
2023-01-08T12:06:47.429Z,24.57
2023-01-08T12:09:20.745Z,23.17
2023-01-08T12:11:51.211Z,21.70
2023-01-08T12:14:23.832Z,27.50
2023-01-08T12:16:57.679Z,17.63
2023-01-08T12:19:31.785Z,57.20
2023-01-08T12:22:09.452Z,44.73
2023-01-08T12:24:48.575Z,23.23
2023-01-08T12:27:25.918Z,29.17
2023-01-08T12:30:05.019Z,115.63
2023-01-08T12:32:36.459Z,31.97
2023-01-08T12:35:07.362Z,37.03
2023-01-08T12:37:41.202Z,27.60
2023-01-08T12:40:15.519Z,26.40
2023-01-08T12:42:50.189Z,22.53
2023-01-08T12:45:20.517Z,22.50
2023-01-08T12:47:50.590Z,29.63
2023-01-08T12:50:23.175Z,32.40
2023-01-08T12:52:54.753Z,22.93
2023-01-08T12:55:28.813Z,25.23
2023-01-08T12:58:00.332Z,22.30
2023-01-08T13:00:32.899Z,17.90
2023-01-08T13:03:03.157Z,20.23
2023-01-08T13:05:33.051Z,19.07
2023-01-08T13:08:04.474Z,22.90
2023-01-08T13:10:37.580Z,22.07
2023-01-08T13:13:06.796Z,25.47
2023-01-08T13:15:35.819Z,23.67
2023-01-08T13:18:08.835Z,24.27
2023-01-08T13:20:37.303Z,25.53
2023-01-08T13:23:07.524Z,25.63
2023-01-08T13:25:37.176Z,24.23
2023-01-08T13:28:19.570Z,32.03
2023-01-08T13:30:49.972Z,30.17
2023-01-08T13:33:29.198Z,19.97
2023-01-08T13:36:17.853Z,22.77
2023-01-08T13:38:47.869Z,23.67
2023-01-08T13:41:26.706Z,39.13
2023-01-08T13:43:57.858Z,22.03
2023-01-08T13:46:26.538Z,39.17
2023-01-08T13:48:59.725Z,36.07
2023-01-08T13:51:36.099Z,20.10
2023-01-08T13:54:10.546Z,20.50
2023-01-08T13:56:39.023Z,27.20
2023-01-08T13:59:07.728Z,27.17
2023-01-08T14:01:36.270Z,25.77
2023-01-08T14:04:04.741Z,35.00
2023-01-08T14:06:34.962Z,24.13
2023-01-08T14:09:06.391Z,28.67
2023-01-08T14:11:41.438Z,29.43
2023-01-08T14:14:12.450Z,23.90
2023-01-08T14:16:42.016Z,25.57
2023-01-08T14:19:10.739Z,22.83
2023-01-08T14:21:39.461Z,26.67
2023-01-08T14:24:08.396Z,24.90
2023-01-08T14:26:39.499Z,20.73
2023-01-08T14:29:15.199Z,25.10
2023-01-08T14:31:48.346Z,22.13
2023-01-08T14:34:17.402Z,24.07
2023-01-08T14:36:46.122Z,21.03
2023-01-08T14:39:14.965Z,20.07
2023-01-08T14:42:02.301Z,21.60
2023-01-08T14:44:37.997Z,24.70
2023-01-08T14:47:15.422Z,26.57
2023-01-08T14:49:44.822Z,54.50
2023-01-08T14:52:18.313Z,22.47
2023-01-08T14:54:47.584Z,20.93
2023-01-08T14:57:19.264Z,22.77
2023-01-08T14:59:51.508Z,30.37
2023-01-08T15:02:24.375Z,26.93
2023-01-08T15:05:02.258Z,33.33
2023-01-08T15:07:30.813Z,36.97
2023-01-08T15:10:01.197Z,21.17
2023-01-08T15:12:32.387Z,26.73
2023-01-08T15:15:10.805Z,19.93
2023-01-08T15:17:41.428Z,20.73
2023-01-08T15:20:18.350Z,20.00
2023-01-08T15:22:47.073Z,16.27
2023-01-08T15:25:17.682Z,17.20
2023-01-08T15:27:53.748Z,17.10
2023-01-08T15:30:26.978Z,17.10
2023-01-08T15:32:55.456Z,18.60
2023-01-08T15:35:25.899Z,18.83
2023-01-08T15:37:54.409Z,16.30
2023-01-08T15:40:22.797Z,14.70
2023-01-08T15:43:10.002Z,15.07
2023-01-08T15:45:38.978Z,13.87
2023-01-08T15:48:08.045Z,13.67
2023-01-08T15:50:38.829Z,13.70
2023-01-08T15:53:08.912Z,15.57
2023-01-08T15:55:37.735Z,17.37
2023-01-08T15:58:07.669Z,67.30
2023-01-08T16:00:36.161Z,17.37
2023-01-08T16:03:07.253Z,18.80
2023-01-08T16:05:36.496Z,20.57
2023-01-08T16:08:05.159Z,24.20
2023-01-08T16:10:33.857Z,19.63
2023-01-08T16:13:02.646Z,18.50
2023-01-08T16:15:32.639Z,17.60
2023-01-08T16:18:01.062Z,16.50
2023-01-08T16:20:29.615Z,17.80
2023-01-08T16:22:58.092Z,19.67
2023-01-08T16:25:26.508Z,25.00
2023-01-08T16:27:55.007Z,23.03
2023-01-08T16:30:23.381Z,24.53
2023-01-08T16:32:56.219Z,16.83
2023-01-08T16:35:24.697Z,18.77
2023-01-08T16:37:53.217Z,25.37
2023-01-08T16:40:21.852Z,21.40
2023-01-08T16:42:50.232Z,16.20
2023-01-08T16:45:18.716Z,25.57
2023-01-08T16:47:47.164Z,18.43
2023-01-08T16:50:17.074Z,21.87
2023-01-08T16:52:45.501Z,22.60
2023-01-08T16:55:13.950Z,20.77
2023-01-08T16:57:42.671Z,24.73
2023-01-08T17:00:11.815Z,68.87
2023-01-08T17:02:40.286Z,40.20
2023-01-08T17:05:09.037Z,30.73
2023-01-08T17:07:38.887Z,29.83
2023-01-08T17:10:08.128Z,37.50
2023-01-08T17:12:36.651Z,25.97
2023-01-08T17:15:05.246Z,29.13
2023-01-08T17:17:33.849Z,25.43
2023-01-08T17:20:02.511Z,30.50
2023-01-08T17:22:31.083Z,32.20
2023-01-08T17:25:00.967Z,29.23
2023-01-08T17:27:29.507Z,34.07
2023-01-08T17:29:58.024Z,37.07
2023-01-08T17:32:27.201Z,28.53
2023-01-08T17:34:55.653Z,29.40
2023-01-08T17:37:24.107Z,31.87
2023-01-08T17:39:52.578Z,39.63
2023-01-08T17:42:25.454Z,36.53
2023-01-08T17:44:54.128Z,38.67
2023-01-08T17:47:22.669Z,36.43
2023-01-08T17:49:51.289Z,36.83
2023-01-08T17:52:19.874Z,42.13
2023-01-08T17:54:49.484Z,34.33
2023-01-08T17:57:18.129Z,35.83
2023-01-08T17:59:48.423Z,37.33
2023-01-08T18:02:17.900Z,54.00
2023-01-08T18:04:46.548Z,42.43
2023-01-08T18:07:15.445Z,43.00
2023-01-08T18:09:44.819Z,33.30
2023-01-08T18:12:13.343Z,52.20
2023-01-08T18:14:42.009Z,32.90
2023-01-08T18:17:11.891Z,32.97
2023-01-08T18:19:40.528Z,32.53
2023-01-08T18:22:08.998Z,26.27
2023-01-08T18:24:37.408Z,32.60
2023-01-08T18:27:05.882Z,33.30
2023-01-08T18:29:34.437Z,26.97
2023-01-08T18:32:03.034Z,25.37
2023-01-08T18:34:33.317Z,30.20
2023-01-08T18:37:01.699Z,30.50
2023-01-08T18:39:30.977Z,34.17
2023-01-08T18:42:19.410Z,27.90
2023-01-08T18:44:48.375Z,21.97
2023-01-08T18:47:16.905Z,21.20
2023-01-08T18:49:46.768Z,20.77
2023-01-08T18:52:15.233Z,22.07
2023-01-08T18:54:43.657Z,23.23
2023-01-08T18:57:12.278Z,21.40
2023-01-08T18:59:41.588Z,28.83
2023-01-08T19:02:10.192Z,28.13
2023-01-08T19:04:38.824Z,37.23
2023-01-08T19:07:08.822Z,23.33
2023-01-08T19:09:37.472Z,19.57
2023-01-08T19:12:06.056Z,23.17
2023-01-08T19:14:34.559Z,25.63
2023-01-08T19:17:02.977Z,26.00
2023-01-08T19:19:31.413Z,24.83
2023-01-08T19:21:59.923Z,21.17
2023-01-08T19:24:30.392Z,21.10
2023-01-08T19:26:58.823Z,23.73
2023-01-08T19:29:27.344Z,27.57
2023-01-08T19:31:55.964Z,25.70
2023-01-08T19:34:24.374Z,30.83
2023-01-08T19:36:54.205Z,53.33
2023-01-08T19:39:22.889Z,25.40
2023-01-08T19:42:12.234Z,45.80
2023-01-08T19:44:40.816Z,25.23
2023-01-08T19:47:10.471Z,27.97
2023-01-08T19:49:39.009Z,24.90
2023-01-08T19:52:07.622Z,30.60
2023-01-08T19:54:36.166Z,58.43
2023-01-08T19:57:06.082Z,35.43
2023-01-08T19:59:34.532Z,25.67
2023-01-08T20:02:03.052Z,20.03
2023-01-08T20:04:31.801Z,18.73
2023-01-08T20:07:01.058Z,18.37
2023-01-08T20:09:29.871Z,19.43
2023-01-08T20:11:58.701Z,24.37
2023-01-08T20:14:28.619Z,22.80
2023-01-08T20:16:57.116Z,26.43
2023-01-08T20:19:25.647Z,17.83
2023-01-08T20:21:54.030Z,17.60
2023-01-08T20:24:22.775Z,17.80
2023-01-08T20:26:51.308Z,16.63
2023-01-08T20:29:19.911Z,21.07
2023-01-08T20:31:56.737Z,18.37
2023-01-08T20:34:25.491Z,19.93
2023-01-08T20:36:53.974Z,18.40
2023-01-08T20:39:23.248Z,17.13
2023-01-08T20:41:55.731Z,19.43
2023-01-08T20:44:32.426Z,16.27
2023-01-08T20:47:02.454Z,26.10
2023-01-08T20:49:31.028Z,20.57
2023-01-08T20:52:00.519Z,19.60
2023-01-08T20:54:29.418Z,24.97
2023-01-08T20:56:58.492Z,19.33
2023-01-08T20:59:27.288Z,18.80
2023-01-08T21:01:57.227Z,21.67
2023-01-08T21:04:27.404Z,20.63
2023-01-08T21:06:55.934Z,23.03
2023-01-08T21:09:24.606Z,18.20
2023-01-08T21:11:53.291Z,20.20
2023-01-08T21:14:21.989Z,19.30
2023-01-08T21:16:50.510Z,17.27
2023-01-08T21:19:18.979Z,18.20
2023-01-08T21:21:48.785Z,17.07
2023-01-08T21:24:17.263Z,19.77
2023-01-08T21:26:47.094Z,17.87
2023-01-08T21:29:16.970Z,17.13
2023-01-08T21:31:45.651Z,16.73
2023-01-08T21:34:14.408Z,14.70
2023-01-08T21:36:42.914Z,15.30
2023-01-08T21:39:12.960Z,13.63
2023-01-08T21:41:59.141Z,16.80
2023-01-08T21:44:45.622Z,16.77
2023-01-08T21:47:14.821Z,13.73
2023-01-08T21:49:43.299Z,12.47
2023-01-08T21:52:29.329Z,10.83
2023-01-08T21:54:59.232Z,10.10
2023-01-08T21:57:28.338Z,11.53
2023-01-08T21:59:57.052Z,9.07
2023-01-08T22:02:25.911Z,9.60
2023-01-08T22:04:56.035Z,10.30
2023-01-08T22:07:24.571Z,9.40
2023-01-08T22:09:53.038Z,10.90
2023-01-08T22:12:24.164Z,9.63
2023-01-08T22:14:54.002Z,11.97
2023-01-08T22:17:22.682Z,11.87
2023-01-08T22:19:51.116Z,10.97
2023-01-08T22:22:19.543Z,10.57
2023-01-08T22:24:47.940Z,10.40
2023-01-08T22:27:16.316Z,8.80
2023-01-08T22:29:46.217Z,7.23
2023-01-08T22:32:14.725Z,8.37
2023-01-08T22:34:43.343Z,7.57
2023-01-08T22:37:11.837Z,9.93
2023-01-08T22:39:40.322Z,9.70
2023-01-08T22:42:08.755Z,15.20
2023-01-08T22:44:37.231Z,11.63
2023-01-08T22:47:09.985Z,19.20
2023-01-08T22:49:39.922Z,16.50
2023-01-08T22:52:09.423Z,16.60
2023-01-08T22:54:38.625Z,13.57
2023-01-08T22:57:07.205Z,11.97
2023-01-08T22:59:35.776Z,9.93
2023-01-08T23:02:04.295Z,12.53
2023-01-08T23:04:34.233Z,9.87
2023-01-08T23:07:02.631Z,13.33
2023-01-08T23:09:31.067Z,11.13
2023-01-08T23:11:59.490Z,12.53
2023-01-08T23:14:27.862Z,12.67
2023-01-08T23:16:56.352Z,10.33
2023-01-08T23:19:24.832Z,12.63
2023-01-08T23:21:54.642Z,13.73
2023-01-08T23:24:23.096Z,15.20
2023-01-08T23:26:52.692Z,13.73
2023-01-08T23:29:21.318Z,13.60
2023-01-08T23:31:49.847Z,14.27
2023-01-08T23:34:18.711Z,14.53
2023-01-08T23:36:47.223Z,12.83
2023-01-08T23:39:17.193Z,16.47
2023-01-08T23:41:45.678Z,13.50
2023-01-08T23:44:17.004Z,15.67
2023-01-08T23:46:45.399Z,17.57
2023-01-08T23:49:13.917Z,15.53
2023-01-08T23:51:42.757Z,14.77
2023-01-08T23:54:11.449Z,16.00
2023-01-08T23:56:41.469Z,13.53
2023-01-08T23:59:10.164Z,11.73
